sensor_id;sensor_type;location;lat;lon;timestamp;pressure;altitude;pressure_sealevel;temperature;humidity
44385;BME280;30101;32.778;34.994;2022-10-16T00:02:47;97383.94;;;22.31;66.48
44385;BME280;30101;32.778;34.994;2022-10-16T00:07:51;97375.47;;;22.33;66.31
44385;BME280;30101;32.778;34.994;2022-10-16T00:12:54;97375.19;;;22.34;66.06
44385;BME280;30101;32.778;34.994;2022-10-16T00:18:02;97376.78;;;22.35;65.92
44385;BME280;30101;32.778;34.994;2022-10-16T00:23:06;97381.41;;;22.35;65.58
44385;BME280;30101;32.778;34.994;2022-10-16T00:28:09;97383.63;;;22.33;65.73
44385;BME280;30101;32.778;34.994;2022-10-16T00:33:14;97384.44;;;22.33;65.64
44385;BME280;30101;32.778;34.994;2022-10-16T00:38:18;97380.38;;;22.31;65.58
44385;BME280;30101;32.778;34.994;2022-10-16T00:43:48;97375.56;;;22.28;65.43
44385;BME280;30101;32.778;34.994;2022-10-16T00:54:00;97382.66;;;22.24;65.37
44385;BME280;30101;32.778;34.994;2022-10-16T00:59:10;97366.66;;;22.22;65.29
44385;BME280;30101;32.778;34.994;2022-10-16T01:04:17;97357.19;;;22.20;65.24
44385;BME280;30101;32.778;34.994;2022-10-16T01:09:34;97354.47;;;22.20;65.15
44385;BME280;30101;32.778;34.994;2022-10-16T01:14:48;97357.69;;;22.22;65.01
44385;BME280;30101;32.778;34.994;2022-10-16T01:20:20;97364.75;;;22.23;65.03
44385;BME280;30101;32.778;34.994;2022-10-16T01:30:59;97361.81;;;22.19;65.31
44385;BME280;30101;32.778;34.994;2022-10-16T01:36:10;97360.97;;;22.19;64.77
44385;BME280;30101;32.778;34.994;2022-10-16T01:41:45;97355.28;;;22.20;64.78
44385;BME280;30101;32.778;34.994;2022-10-16T01:46:52;97355.78;;;22.22;64.41
44385;BME280;30101;32.778;34.994;2022-10-16T01:51:58;97355.19;;;22.25;64.18
44385;BME280;30101;32.778;34.994;2022-10-16T01:57:09;97348.06;;;22.29;63.80
44385;BME280;30101;32.778;34.994;2022-10-16T02:02:15;97346.56;;;22.37;63.51
44385;BME280;30101;32.778;34.994;2022-10-16T02:07:20;97342.66;;;22.43;63.12
44385;BME280;30101;32.778;34.994;2022-10-16T02:12:28;97345.00;;;22.50;62.92
44385;BME280;30101;32.778;34.994;2022-10-16T02:17:33;97340.91;;;22.52;62.66
44385;BME280;30101;32.778;34.994;2022-10-16T02:22:48;97342.50;;;22.53;62.48
44385;BME280;30101;32.778;34.994;2022-10-16T02:28:06;97343.63;;;22.52;62.19
44385;BME280;30101;32.778;34.994;2022-10-16T02:33:12;97347.13;;;22.53;62.13
44385;BME280;30101;32.778;34.994;2022-10-16T02:38:19;97337.94;;;22.49;61.94
44385;BME280;30101;32.778;34.994;2022-10-16T02:43:25;97337.44;;;22.47;61.79
44385;BME280;30101;32.778;34.994;2022-10-16T02:48:28;97336.66;;;22.46;61.62
44385;BME280;30101;32.778;34.994;2022-10-16T02:53:32;97338.56;;;22.46;61.38
44385;BME280;30101;32.778;34.994;2022-10-16T02:58:36;97336.94;;;22.45;61.09
44385;BME280;30101;32.778;34.994;2022-10-16T03:03:39;97337.44;;;22.47;61.08
44385;BME280;30101;32.778;34.994;2022-10-16T03:08:43;97334.94;;;22.50;60.66
44385;BME280;30101;32.778;34.994;2022-10-16T03:13:46;97336.75;;;22.55;60.58
44385;BME280;30101;32.778;34.994;2022-10-16T03:18:50;97333.16;;;22.59;59.83
44385;BME280;30101;32.778;34.994;2022-10-16T03:23:53;97331.25;;;22.60;59.69
44385;BME280;30101;32.778;34.994;2022-10-16T03:28:57;97333.97;;;22.60;59.29
44385;BME280;30101;32.778;34.994;2022-10-16T03:34:00;97333.66;;;22.61;58.87
44385;BME280;30101;32.778;34.994;2022-10-16T03:39:03;97346.69;;;22.65;58.58
44385;BME280;30101;32.778;34.994;2022-10-16T03:44:07;97342.53;;;22.67;58.18
44385;BME280;30101;32.778;34.994;2022-10-16T03:49:10;97352.31;;;22.68;57.93
44385;BME280;30101;32.778;34.994;2022-10-16T03:54:14;97347.69;;;22.69;57.51
44385;BME280;30101;32.778;34.994;2022-10-16T03:59:18;97362.31;;;22.73;57.04
44385;BME280;30101;32.778;34.994;2022-10-16T04:04:21;97356.28;;;22.76;56.66
44385;BME280;30101;32.778;34.994;2022-10-16T04:09:25;97359.81;;;22.76;56.11
44385;BME280;30101;32.778;34.994;2022-10-16T04:14:29;97364.97;;;22.78;56.07
44385;BME280;30101;32.778;34.994;2022-10-16T04:19:33;97374.25;;;22.77;55.69
44385;BME280;30101;32.778;34.994;2022-10-16T04:24:36;97376.66;;;22.78;55.46
44385;BME280;30101;32.778;34.994;2022-10-16T04:29:40;97362.25;;;22.78;55.18
44385;BME280;30101;32.778;34.994;2022-10-16T04:34:43;97364.34;;;22.81;54.93
44385;BME280;30101;32.778;34.994;2022-10-16T04:39:47;97374.66;;;22.84;54.64
44385;BME280;30101;32.778;34.994;2022-10-16T04:44:51;97372.16;;;22.87;54.44
44385;BME280;30101;32.778;34.994;2022-10-16T04:49:55;97386.50;;;22.93;53.96
44385;BME280;30101;32.778;34.994;2022-10-16T04:54:59;97385.03;;;23.01;54.04
44385;BME280;30101;32.778;34.994;2022-10-16T05:00:03;97399.06;;;23.08;53.61
44385;BME280;30101;32.778;34.994;2022-10-16T05:05:07;97397.84;;;23.14;53.47
44385;BME280;30101;32.778;34.994;2022-10-16T05:10:10;97407.44;;;23.25;53.17
44385;BME280;30101;32.778;34.994;2022-10-16T05:15:14;97415.75;;;23.48;53.21
44385;BME280;30101;32.778;34.994;2022-10-16T05:20:22;97411.66;;;23.78;52.66
44385;BME280;30101;32.778;34.994;2022-10-16T05:25:28;97428.72;;;23.83;52.28
44385;BME280;30101;32.778;34.994;2022-10-16T05:30:32;97433.03;;;23.84;52.50
44385;BME280;30101;32.778;34.994;2022-10-16T05:35:35;97442.53;;;23.87;52.28
44385;BME280;30101;32.778;34.994;2022-10-16T05:40:38;97444.66;;;23.90;51.73
44385;BME280;30101;32.778;34.994;2022-10-16T05:45:42;97438.28;;;23.94;51.64
44385;BME280;30101;32.778;34.994;2022-10-16T05:50:45;97451.53;;;24.01;51.30
44385;BME280;30101;32.778;34.994;2022-10-16T05:55:53;97449.38;;;24.12;50.90
44385;BME280;30101;32.778;34.994;2022-10-16T06:00:59;97457.66;;;24.34;50.69
44385;BME280;30101;32.778;34.994;2022-10-16T06:06:13;97461.47;;;24.47;50.58
44385;BME280;30101;32.778;34.994;2022-10-16T06:11:19;97471.16;;;24.53;49.94
44385;BME280;30101;32.778;34.994;2022-10-16T06:16:24;97472.03;;;24.62;49.89
44385;BME280;30101;32.778;34.994;2022-10-16T06:21:28;97469.69;;;24.69;49.61
44385;BME280;30101;32.778;34.994;2022-10-16T06:26:32;97468.97;;;24.78;49.46
44385;BME280;30101;32.778;34.994;2022-10-16T06:31:35;97463.38;;;24.83;49.43
44385;BME280;30101;32.778;34.994;2022-10-16T06:36:39;97466.66;;;24.93;49.34
44385;BME280;30101;32.778;34.994;2022-10-16T06:41:43;97473.31;;;25.01;48.95
44385;BME280;30101;32.778;34.994;2022-10-16T06:46:52;97464.91;;;25.11;48.66
44385;BME280;30101;32.778;34.994;2022-10-16T06:51:56;97458.88;;;25.23;48.86
44385;BME280;30101;32.778;34.994;2022-10-16T06:56:59;97455.72;;;25.38;48.46
44385;BME280;30101;32.778;34.994;2022-10-16T07:02:03;97450.94;;;25.44;48.14
44385;BME280;30101;32.778;34.994;2022-10-16T07:07:06;97438.13;;;25.53;47.79
44385;BME280;30101;32.778;34.994;2022-10-16T07:12:11;97461.28;;;25.78;47.09
44385;BME280;30101;32.778;34.994;2022-10-16T07:17:14;97450.38;;;25.95;47.00
44385;BME280;30101;32.778;34.994;2022-10-16T07:22:18;97463.94;;;26.09;46.69
44385;BME280;30101;32.778;34.994;2022-10-16T07:27:21;97466.88;;;26.21;47.08
44385;BME280;30101;32.778;34.994;2022-10-16T07:32:26;97473.34;;;26.34;46.23
44385;BME280;30101;32.778;34.994;2022-10-16T07:37:37;97472.25;;;26.44;46.26
44385;BME280;30101;32.778;34.994;2022-10-16T07:42:41;97466.78;;;26.52;46.02
44385;BME280;30101;32.778;34.994;2022-10-16T07:47:44;97462.28;;;26.65;45.52
44385;BME280;30101;32.778;34.994;2022-10-16T07:52:48;97466.97;;;26.73;45.29
44385;BME280;30101;32.778;34.994;2022-10-16T07:57:52;97460.19;;;26.88;45.02
44385;BME280;30101;32.778;34.994;2022-10-16T08:02:57;97460.19;;;27.05;44.51
44385;BME280;30101;32.778;34.994;2022-10-16T08:08:02;97463.72;;;27.23;44.21
44385;BME280;30101;32.778;34.994;2022-10-16T08:13:06;97468.03;;;27.41;43.61
44385;BME280;30101;32.778;34.994;2022-10-16T08:18:15;97456.41;;;27.53;43.28
44385;BME280;30101;32.778;34.994;2022-10-16T08:23:18;97462.16;;;27.69;42.97
44385;BME280;30101;32.778;34.994;2022-10-16T08:28:23;97465.19;;;27.85;42.65
44385;BME280;30101;32.778;34.994;2022-10-16T08:33:26;97466.56;;;28.00;42.31
44385;BME280;30101;32.778;34.994;2022-10-16T08:38:30;97463.94;;;28.03;42.12
44385;BME280;30101;32.778;34.994;2022-10-16T08:48:48;97456.81;;;28.11;41.92
44385;BME280;30101;32.778;34.994;2022-10-16T08:59:18;97475.59;;;28.30;41.71
44385;BME280;30101;32.778;34.994;2022-10-16T09:26:22;97450.66;;;28.43;43.39
44385;BME280;30101;32.778;34.994;2022-10-16T09:31:31;97449.19;;;28.46;43.96
44385;BME280;30101;32.778;34.994;2022-10-16T09:36:43;97438.69;;;28.48;44.31
44385;BME280;30101;32.778;34.994;2022-10-16T09:41:48;97440.81;;;28.42;44.62
44385;BME280;30101;32.778;34.994;2022-10-16T09:47:25;97420.97;;;28.37;45.38
44385;BME280;30101;32.778;34.994;2022-10-16T09:52:30;97413.09;;;28.27;46.21
44385;BME280;30101;32.778;34.994;2022-10-16T09:57:33;97397.97;;;28.20;46.19
44385;BME280;30101;32.778;34.994;2022-10-16T10:02:37;97391.59;;;28.08;46.52
44385;BME280;30101;32.778;34.994;2022-10-16T10:07:43;97385.75;;;28.09;46.76
44385;BME280;30101;32.778;34.994;2022-10-16T10:12:47;97384.34;;;28.03;47.00
44385;BME280;30101;32.778;34.994;2022-10-16T10:22:56;97384.59;;;27.89;47.76
44385;BME280;30101;32.778;34.994;2022-10-16T11:05:43;97436.44;;;27.82;49.33
44385;BME280;30101;32.778;34.994;2022-10-16T11:16:06;97470.50;;;26.82;52.82
44385;BME280;30101;32.778;34.994;2022-10-16T11:21:13;97473.72;;;26.41;54.40
44385;BME280;30101;32.778;34.994;2022-10-16T11:26:28;97491.50;;;26.21;55.20
44385;BME280;30101;32.778;34.994;2022-10-16T11:31:50;97487.59;;;26.05;55.37
44385;BME280;30101;32.778;34.994;2022-10-16T11:37:23;97498.75;;;25.77;55.97
44385;BME280;30101;32.778;34.994;2022-10-16T11:42:44;97482.16;;;25.51;56.68
44385;BME280;30101;32.778;34.994;2022-10-16T11:47:57;97480.25;;;25.21;57.16
44385;BME280;30101;32.778;34.994;2022-10-16T11:53:24;97506.41;;;24.99;57.74
44385;BME280;30101;32.778;34.994;2022-10-16T12:03:48;97485.31;;;24.55;58.48
44385;BME280;30101;32.778;34.994;2022-10-16T12:09:02;97492.97;;;24.67;58.43
44385;BME280;30101;32.778;34.994;2022-10-16T12:19:20;97476.31;;;24.91;58.28
44385;BME280;30101;32.778;34.994;2022-10-16T12:24:41;97481.00;;;24.99;57.94
44385;BME280;30101;32.778;34.994;2022-10-16T12:29:45;97493.22;;;25.01;57.62
44385;BME280;30101;32.778;34.994;2022-10-16T12:34:49;97508.31;;;24.77;58.49
44385;BME280;30101;32.778;34.994;2022-10-16T12:39:54;97479.84;;;24.55;59.13
44385;BME280;30101;32.778;34.994;2022-10-16T12:44:59;97467.94;;;24.37;59.30
44385;BME280;30101;32.778;34.994;2022-10-16T12:50:31;97453.50;;;24.37;59.25
44385;BME280;30101;32.778;34.994;2022-10-16T12:56:29;97437.13;;;24.23;59.44
44385;BME280;30101;32.778;34.994;2022-10-16T13:23:22;97448.75;;;23.60;61.11
44385;BME280;30101;32.778;34.994;2022-10-16T13:28:30;97432.31;;;23.51;61.81
44385;BME280;30101;32.778;34.994;2022-10-16T13:33:37;97430.88;;;23.54;62.21
44385;BME280;30101;32.778;34.994;2022-10-16T13:38:42;97437.53;;;23.34;62.64
44385;BME280;30101;32.778;34.994;2022-10-16T13:43:49;97424.38;;;23.22;62.92
44385;BME280;30101;32.778;34.994;2022-10-16T13:54:04;97418.06;;;22.94;63.70
44385;BME280;30101;32.778;34.994;2022-10-16T13:59:26;97427.13;;;22.90;63.58
44385;BME280;30101;32.778;34.994;2022-10-16T14:04:31;97432.63;;;22.84;63.90
44385;BME280;30101;32.778;34.994;2022-10-16T14:09:36;97419.69;;;22.76;64.10
44385;BME280;30101;32.778;34.994;2022-10-16T14:14:43;97432.94;;;22.83;63.58
44385;BME280;30101;32.778;34.994;2022-10-16T14:19:51;97433.44;;;22.85;63.48
44385;BME280;30101;32.778;34.994;2022-10-16T14:30:26;97430.34;;;22.92;63.76
44385;BME280;30101;32.778;34.994;2022-10-16T14:35:38;97422.81;;;22.88;63.29
44385;BME280;30101;32.778;34.994;2022-10-16T14:40:47;97424.53;;;22.79;64.02
44385;BME280;30101;32.778;34.994;2022-10-16T14:45:54;97423.31;;;22.72;64.34
44385;BME280;30101;32.778;34.994;2022-10-16T14:50:58;97426.91;;;22.67;64.40
44385;BME280;30101;32.778;34.994;2022-10-16T14:56:12;97429.50;;;22.58;64.77
44385;BME280;30101;32.778;34.994;2022-10-16T15:01:19;97435.31;;;22.52;64.87
44385;BME280;30101;32.778;34.994;2022-10-16T15:06:23;97420.19;;;22.46;65.21
44385;BME280;30101;32.778;34.994;2022-10-16T15:11:26;97431.34;;;22.44;65.31
44385;BME280;30101;32.778;34.994;2022-10-16T15:16:31;97431.69;;;22.38;65.66
44385;BME280;30101;32.778;34.994;2022-10-16T15:21:35;97439.16;;;22.32;65.71
44385;BME280;30101;32.778;34.994;2022-10-16T15:26:38;97431.00;;;22.32;65.91
44385;BME280;30101;32.778;34.994;2022-10-16T15:31:41;97445.22;;;22.24;66.08
44385;BME280;30101;32.778;34.994;2022-10-16T15:36:45;97446.38;;;22.18;66.14
44385;BME280;30101;32.778;34.994;2022-10-16T15:41:48;97446.47;;;22.13;66.44
44385;BME280;30101;32.778;34.994;2022-10-16T15:46:54;97447.56;;;22.12;66.62
44385;BME280;30101;32.778;34.994;2022-10-16T15:51:58;97442.94;;;22.12;66.73
44385;BME280;30101;32.778;34.994;2022-10-16T15:57:02;97450.00;;;22.13;66.97
44385;BME280;30101;32.778;34.994;2022-10-16T16:02:12;97451.09;;;22.12;67.21
44385;BME280;30101;32.778;34.994;2022-10-16T16:07:17;97446.50;;;22.07;67.64
44385;BME280;30101;32.778;34.994;2022-10-16T16:12:20;97451.41;;;22.05;67.88
44385;BME280;30101;32.778;34.994;2022-10-16T16:17:24;97458.75;;;22.05;68.18
44385;BME280;30101;32.778;34.994;2022-10-16T16:22:27;97456.66;;;22.02;68.52
44385;BME280;30101;32.778;34.994;2022-10-16T16:27:32;97459.13;;;21.98;68.91
44385;BME280;30101;32.778;34.994;2022-10-16T16:32:35;97455.38;;;21.94;69.16
44385;BME280;30101;32.778;34.994;2022-10-16T16:37:38;97450.00;;;21.89;69.53
44385;BME280;30101;32.778;34.994;2022-10-16T16:42:42;97457.09;;;21.85;69.64
44385;BME280;30101;32.778;34.994;2022-10-16T16:47:46;97459.63;;;21.81;69.96
44385;BME280;30101;32.778;34.994;2022-10-16T16:52:52;97457.16;;;21.80;69.90
44385;BME280;30101;32.778;34.994;2022-10-16T16:57:55;97455.34;;;21.75;70.06
44385;BME280;30101;32.778;34.994;2022-10-16T17:03:02;97463.75;;;21.74;70.02
44385;BME280;30101;32.778;34.994;2022-10-16T17:08:08;97465.44;;;21.70;70.39
44385;BME280;30101;32.778;34.994;2022-10-16T17:13:12;97457.06;;;21.66;70.64
44385;BME280;30101;32.778;34.994;2022-10-16T17:18:16;97462.50;;;21.66;70.51
44385;BME280;30101;32.778;34.994;2022-10-16T17:23:19;97453.28;;;21.62;70.49
44385;BME280;30101;32.778;34.994;2022-10-16T17:28:22;97464.69;;;21.64;70.53
44385;BME280;30101;32.778;34.994;2022-10-16T17:33:26;97470.44;;;21.63;70.50
44385;BME280;30101;32.778;34.994;2022-10-16T17:38:31;97463.09;;;21.63;70.38
44385;BME280;30101;32.778;34.994;2022-10-16T17:43:36;97464.66;;;21.69;69.93
44385;BME280;30101;32.778;34.994;2022-10-16T17:48:42;97481.97;;;21.73;69.45
44385;BME280;30101;32.778;34.994;2022-10-16T17:53:59;97478.09;;;21.79;68.85
44385;BME280;30101;32.778;34.994;2022-10-16T17:59:03;97474.28;;;21.80;67.99
44385;BME280;30101;32.778;34.994;2022-10-16T18:04:09;97474.53;;;21.84;67.50
44385;BME280;30101;32.778;34.994;2022-10-16T18:09:15;97481.56;;;21.85;67.22
44385;BME280;30101;32.778;34.994;2022-10-16T18:14:19;97481.28;;;21.87;66.48
44385;BME280;30101;32.778;34.994;2022-10-16T18:19:23;97487.75;;;21.91;65.93
44385;BME280;30101;32.778;34.994;2022-10-16T18:24:28;97484.75;;;21.92;65.30
44385;BME280;30101;32.778;34.994;2022-10-16T18:29:31;97489.31;;;21.97;65.07
44385;BME280;30101;32.778;34.994;2022-10-16T18:34:35;97486.56;;;22.02;64.57
44385;BME280;30101;32.778;34.994;2022-10-16T18:39:38;97496.25;;;22.08;64.06
44385;BME280;30101;32.778;34.994;2022-10-16T18:44:41;97497.31;;;22.12;63.64
44385;BME280;30101;32.778;34.994;2022-10-16T18:49:48;97495.34;;;22.18;63.24
44385;BME280;30101;32.778;34.994;2022-10-16T18:54:54;97499.09;;;22.22;62.90
44385;BME280;30101;32.778;34.994;2022-10-16T18:59:58;97490.34;;;22.25;62.45
44385;BME280;30101;32.778;34.994;2022-10-16T19:05:05;97494.94;;;22.29;61.97
44385;BME280;30101;32.778;34.994;2022-10-16T19:10:10;97503.31;;;22.33;61.64
44385;BME280;30101;32.778;34.994;2022-10-16T19:15:14;97508.47;;;22.34;61.14
44385;BME280;30101;32.778;34.994;2022-10-16T19:20:18;97511.41;;;22.38;60.68
44385;BME280;30101;32.778;34.994;2022-10-16T19:25:22;97510.53;;;22.43;60.16
44385;BME280;30101;32.778;34.994;2022-10-16T19:30:25;97507.53;;;22.44;59.84
44385;BME280;30101;32.778;34.994;2022-10-16T19:35:29;97509.66;;;22.47;59.51
44385;BME280;30101;32.778;34.994;2022-10-16T19:40:33;97516.72;;;22.48;59.15
44385;BME280;30101;32.778;34.994;2022-10-16T19:45:36;97516.41;;;22.50;58.86
44385;BME280;30101;32.778;34.994;2022-10-16T19:50:45;97511.50;;;22.52;58.62
44385;BME280;30101;32.778;34.994;2022-10-16T19:55:48;97513.41;;;22.51;58.43
44385;BME280;30101;32.778;34.994;2022-10-16T20:00:52;97508.78;;;22.52;58.05
44385;BME280;30101;32.778;34.994;2022-10-16T20:05:56;97498.19;;;22.50;57.63
44385;BME280;30101;32.778;34.994;2022-10-16T20:10:59;97503.84;;;22.54;57.50
44385;BME280;30101;32.778;34.994;2022-10-16T20:16:04;97505.47;;;22.55;57.32
44385;BME280;30101;32.778;34.994;2022-10-16T20:21:16;97504.34;;;22.56;57.29
44385;BME280;30101;32.778;34.994;2022-10-16T20:26:21;97504.09;;;22.57;57.03
44385;BME280;30101;32.778;34.994;2022-10-16T20:31:28;97493.19;;;22.57;56.54
44385;BME280;30101;32.778;34.994;2022-10-16T20:36:33;97498.03;;;22.60;56.39
44385;BME280;30101;32.778;34.994;2022-10-16T20:41:37;97488.75;;;22.61;56.09
44385;BME280;30101;32.778;34.994;2022-10-16T20:46:41;97494.81;;;22.58;55.99
44385;BME280;30101;32.778;34.994;2022-10-16T20:51:44;97495.91;;;22.57;55.86
44385;BME280;30101;32.778;34.994;2022-10-16T20:56:48;97497.31;;;22.55;55.77
44385;BME280;30101;32.778;34.994;2022-10-16T21:01:51;97498.09;;;22.55;55.60
44385;BME280;30101;32.778;34.994;2022-10-16T21:06:55;97497.59;;;22.53;55.40
44385;BME280;30101;32.778;34.994;2022-10-16T21:12:00;97492.97;;;22.54;55.35
44385;BME280;30101;32.778;34.994;2022-10-16T21:17:04;97483.69;;;22.55;55.23
44385;BME280;30101;32.778;34.994;2022-10-16T21:22:07;97488.84;;;22.56;54.99
44385;BME280;30101;32.778;34.994;2022-10-16T21:27:11;97492.09;;;22.58;54.90
44385;BME280;30101;32.778;34.994;2022-10-16T21:32:15;97484.94;;;22.62;54.74
44385;BME280;30101;32.778;34.994;2022-10-16T21:37:18;97498.28;;;22.64;54.75
44385;BME280;30101;32.778;34.994;2022-10-16T21:42:22;97492.53;;;22.66;54.53
44385;BME280;30101;32.778;34.994;2022-10-16T21:47:26;97497.66;;;22.67;54.50
44385;BME280;30101;32.778;34.994;2022-10-16T21:52:29;97508.06;;;22.65;54.30
44385;BME280;30101;32.778;34.994;2022-10-16T21:57:33;97495.00;;;22.62;54.15
44385;BME280;30101;32.778;34.994;2022-10-16T22:02:37;97503.28;;;22.57;54.13
44385;BME280;30101;32.778;34.994;2022-10-16T22:07:40;97499.22;;;22.54;53.72
44385;BME280;30101;32.778;34.994;2022-10-16T22:12:44;97499.22;;;22.54;54.00
44385;BME280;30101;32.778;34.994;2022-10-16T22:17:48;97501.94;;;22.54;53.73
44385;BME280;30101;32.778;34.994;2022-10-16T22:22:59;97507.06;;;22.56;54.19
44385;BME280;30101;32.778;34.994;2022-10-16T22:28:03;97511.44;;;22.57;53.96
44385;BME280;30101;32.778;34.994;2022-10-16T22:33:08;97514.16;;;22.57;54.01
44385;BME280;30101;32.778;34.994;2022-10-16T22:38:11;97515.25;;;22.56;53.89
44385;BME280;30101;32.778;34.994;2022-10-16T22:43:15;97512.53;;;22.56;53.95
44385;BME280;30101;32.778;34.994;2022-10-16T22:48:19;97511.44;;;22.57;53.89
44385;BME280;30101;32.778;34.994;2022-10-16T22:53:23;97514.44;;;22.55;53.78
44385;BME280;30101;32.778;34.994;2022-10-16T22:58:26;97525.91;;;22.52;53.70
44385;BME280;30101;32.778;34.994;2022-10-16T23:03:30;97521.03;;;22.49;53.36
44385;BME280;30101;32.778;34.994;2022-10-16T23:08:33;97524.06;;;22.48;53.67
44385;BME280;30101;32.778;34.994;2022-10-16T23:13:38;97525.16;;;22.47;53.83
44385;BME280;30101;32.778;34.994;2022-10-16T23:18:43;97521.94;;;22.45;53.54
44385;BME280;30101;32.778;34.994;2022-10-16T23:23:47;97528.19;;;22.45;53.82
44385;BME280;30101;32.778;34.994;2022-10-16T23:28:51;97529.28;;;22.44;53.83
44385;BME280;30101;32.778;34.994;2022-10-16T23:33:58;97529.06;;;22.41;54.02
44385;BME280;30101;32.778;34.994;2022-10-16T23:39:02;97540.25;;;22.39;54.11
44385;BME280;30101;32.778;34.994;2022-10-16T23:44:06;97544.88;;;22.39;54.12
44385;BME280;30101;32.778;34.994;2022-10-16T23:49:09;97536.41;;;22.40;54.35
44385;BME280;30101;32.778;34.994;2022-10-16T23:54:13;97535.59;;;22.40;54.59
44385;BME280;30101;32.778;34.994;2022-10-16T23:59:22;97540.25;;;22.39;54.41
